createdAt,value
2022-08-28T00:00:29.553Z,9.68
2022-08-28T00:02:56.788Z,10.27
2022-08-28T00:05:26.347Z,10.60
2022-08-28T00:07:53.082Z,11.35
2022-08-28T00:10:22.609Z,9.85
2022-08-28T00:12:50.482Z,11.02
2022-08-28T00:15:22.006Z,10.82
2022-08-28T00:17:49.022Z,11.45
2022-08-28T00:20:18.562Z,10.52
2022-08-28T00:22:45.393Z,11.63
2022-08-28T00:25:13.503Z,11.50
2022-08-28T00:27:55.599Z,11.07
2022-08-28T00:30:29.844Z,11.30
2022-08-28T00:32:59.851Z,11.32
2022-08-28T00:35:27.635Z,12.47
2022-08-28T00:37:57.488Z,12.10
2022-08-28T00:40:28.859Z,11.98
2022-08-28T00:43:00.267Z,11.82
2022-08-28T00:45:27.548Z,13.50
2022-08-28T00:47:54.280Z,12.52
2022-08-28T00:50:25.492Z,12.70
2022-08-28T00:52:57.749Z,13.00
2022-08-28T00:55:26.519Z,12.40
2022-08-28T00:57:56.480Z,14.45
2022-08-28T01:00:35.107Z,13.93
2022-08-28T01:03:02.964Z,13.95
2022-08-28T01:05:29.821Z,13.82
2022-08-28T01:07:58.697Z,14.55
2022-08-28T01:10:27.125Z,15.27
2022-08-28T01:12:56.222Z,14.85
2022-08-28T01:15:28.335Z,16.00
2022-08-28T01:18:05.934Z,15.88
2022-08-28T01:20:37.734Z,17.27
2022-08-28T01:23:25.024Z,16.60
2022-08-28T01:25:52.486Z,15.45
2022-08-28T01:28:19.027Z,15.77
2022-08-28T01:30:47.759Z,16.77
2022-08-28T01:33:17.504Z,16.08
2022-08-28T01:35:47.469Z,15.27
2022-08-28T01:38:21.458Z,13.30
2022-08-28T01:40:54.546Z,12.45
2022-08-28T01:43:24.365Z,11.55
2022-08-28T01:45:54.248Z,11.63
2022-08-28T01:48:23.291Z,12.20
2022-08-28T01:50:50.727Z,11.65
2022-08-28T01:53:20.366Z,10.00
2022-08-28T01:55:53.156Z,9.35
2022-08-28T01:58:19.658Z,9.07
2022-08-28T02:00:46.319Z,9.13
2022-08-28T02:03:12.847Z,8.63
2022-08-28T02:05:40.041Z,8.77
2022-08-28T02:08:07.798Z,8.20
2022-08-28T02:10:37.283Z,8.05
2022-08-28T02:13:04.806Z,8.15
2022-08-28T02:15:32.863Z,7.22
2022-08-28T02:18:00.123Z,7.35
2022-08-28T02:20:28.607Z,7.53
2022-08-28T02:22:57.907Z,7.93
2022-08-28T02:25:25.469Z,7.35
2022-08-28T02:27:51.916Z,7.55
2022-08-28T02:30:18.879Z,6.70
2022-08-28T02:32:46.255Z,6.70
2022-08-28T02:35:15.659Z,6.10
2022-08-28T02:37:44.248Z,7.13
2022-08-28T02:40:14.317Z,6.43
2022-08-28T02:42:42.015Z,6.38
2022-08-28T02:45:11.397Z,6.63
2022-08-28T02:47:39.926Z,5.70
2022-08-28T02:50:07.719Z,6.30
2022-08-28T02:52:37.746Z,6.30
2022-08-28T02:55:06.488Z,6.20
2022-08-28T02:57:33.026Z,5.38
2022-08-28T02:59:59.831Z,5.75
2022-08-28T03:02:26.392Z,6.00
2022-08-28T03:04:53.455Z,6.00
2022-08-28T03:07:22.028Z,5.13
2022-08-28T03:09:49.782Z,5.68
2022-08-28T03:12:17.096Z,5.85
2022-08-28T03:14:43.819Z,5.93
2022-08-28T03:17:10.274Z,5.80
2022-08-28T03:19:36.772Z,6.43
2022-08-28T03:22:03.322Z,6.60
2022-08-28T03:24:29.758Z,5.82
2022-08-28T03:26:56.222Z,6.05
2022-08-28T03:29:23.073Z,5.68
2022-08-28T03:31:49.492Z,6.40
2022-08-28T03:34:15.999Z,6.32
2022-08-28T03:36:42.430Z,6.10
2022-08-28T03:39:08.862Z,5.50
2022-08-28T03:41:35.296Z,5.07
2022-08-28T03:44:02.623Z,6.10
2022-08-28T03:46:32.911Z,5.22
2022-08-28T03:49:01.384Z,5.93
2022-08-28T03:51:30.569Z,5.60
2022-08-28T03:54:01.678Z,5.05
2022-08-28T03:56:29.451Z,5.57
2022-08-28T03:58:58.727Z,5.65
2022-08-28T04:01:25.707Z,5.85
2022-08-28T04:03:52.569Z,4.70
2022-08-28T04:06:20.075Z,4.82
2022-08-28T04:08:47.507Z,6.05
2022-08-28T04:11:13.936Z,4.88
2022-08-28T04:13:41.675Z,5.72
2022-08-28T04:16:11.251Z,5.40
2022-08-28T04:18:42.418Z,5.22
2022-08-28T04:21:18.209Z,4.90
2022-08-28T04:23:45.883Z,5.43
2022-08-28T04:26:15.703Z,5.38
2022-08-28T04:28:42.305Z,5.65
2022-08-28T04:31:08.901Z,5.53
2022-08-28T04:33:36.316Z,4.85
2022-08-28T04:36:11.635Z,5.28
2022-08-28T04:38:43.551Z,5.70
2022-08-28T04:41:12.788Z,5.50
2022-08-28T04:43:39.758Z,5.38
2022-08-28T04:46:08.421Z,5.45
2022-08-28T04:48:35.682Z,5.32
2022-08-28T04:51:05.640Z,5.25
2022-08-28T04:53:32.945Z,5.63
2022-08-28T04:56:00.597Z,5.45
2022-08-28T04:58:27.203Z,5.88
2022-08-28T05:00:54.331Z,6.00
2022-08-28T05:03:21.107Z,6.13
2022-08-28T05:05:54.382Z,5.10
2022-08-28T05:08:23.854Z,5.88
2022-08-28T05:10:50.935Z,5.35
2022-08-28T05:13:18.451Z,5.57
2022-08-28T05:15:48.267Z,5.35
2022-08-28T05:18:16.996Z,5.53
2022-08-28T05:20:45.686Z,5.97
2022-08-28T05:23:14.443Z,5.60
2022-08-28T05:25:45.848Z,6.47
2022-08-28T05:28:13.611Z,6.28
2022-08-28T05:30:41.899Z,6.50
2022-08-28T05:33:10.527Z,6.07
2022-08-28T05:35:39.042Z,6.47
2022-08-28T05:38:06.444Z,6.55
2022-08-28T05:40:33.680Z,5.90
2022-08-28T05:43:00.435Z,5.78
2022-08-28T05:45:26.884Z,5.68
2022-08-28T05:47:54.012Z,6.47
2022-08-28T05:50:20.471Z,6.90
2022-08-28T05:52:47.447Z,7.38
2022-08-28T05:55:14.070Z,7.32
2022-08-28T05:57:41.067Z,7.50
2022-08-28T06:00:12.683Z,6.85
2022-08-28T06:02:40.484Z,6.80
2022-08-28T06:05:07.218Z,7.65
2022-08-28T06:07:34.010Z,7.32
2022-08-28T06:10:00.851Z,6.53
2022-08-28T06:12:27.263Z,7.82
2022-08-28T06:14:54.213Z,8.10
2022-08-28T06:17:23.765Z,9.00
2022-08-28T06:19:50.448Z,8.98
2022-08-28T06:22:17.099Z,8.30
2022-08-28T06:24:43.809Z,7.95
2022-08-28T06:27:10.343Z,7.28
2022-08-28T06:29:36.784Z,8.68
2022-08-28T06:32:06.828Z,8.07
2022-08-28T06:34:33.754Z,8.90
2022-08-28T06:37:00.678Z,7.57
2022-08-28T06:39:27.122Z,8.65
2022-08-28T06:41:53.715Z,8.82
2022-08-28T06:44:21.562Z,8.48
2022-08-28T06:46:50.503Z,7.63
2022-08-28T06:49:17.003Z,8.95
2022-08-28T06:51:43.734Z,8.88
2022-08-28T06:54:10.320Z,8.55
2022-08-28T06:56:36.947Z,8.98
2022-08-28T06:59:04.053Z,8.73
2022-08-28T07:01:34.328Z,8.88
2022-08-28T07:04:04.046Z,9.07
2022-08-28T07:06:34.040Z,9.25
2022-08-28T07:09:00.819Z,8.10
2022-08-28T07:11:30.238Z,8.07
2022-08-28T07:13:57.865Z,8.38
2022-08-28T07:16:30.346Z,8.75
2022-08-28T07:18:57.683Z,8.20
2022-08-28T07:21:24.249Z,8.88
2022-08-28T07:23:50.744Z,9.70
2022-08-28T07:26:20.367Z,8.48
2022-08-28T07:28:47.276Z,8.13
2022-08-28T07:31:16.697Z,8.82
2022-08-28T07:33:44.313Z,9.98
2022-08-28T07:36:19.083Z,8.57
2022-08-28T07:38:59.230Z,9.40
2022-08-28T07:41:29.061Z,8.93
2022-08-28T07:44:14.341Z,8.80
2022-08-28T07:46:41.855Z,9.20
2022-08-28T07:49:08.932Z,8.70
2022-08-28T07:51:36.126Z,8.93
2022-08-28T07:54:04.046Z,8.85
2022-08-28T07:56:31.463Z,8.63
2022-08-28T07:59:00.131Z,9.15
2022-08-28T08:01:28.893Z,10.27
2022-08-28T08:04:01.314Z,9.20
2022-08-28T08:06:33.072Z,9.38
2022-08-28T08:09:01.977Z,9.43
2022-08-28T08:11:32.220Z,8.98
2022-08-28T08:14:05.478Z,8.45
2022-08-28T08:16:39.060Z,8.68
2022-08-28T08:19:05.999Z,9.20
2022-08-28T08:21:32.699Z,8.70
2022-08-28T08:23:59.243Z,9.05
2022-08-28T08:26:28.184Z,9.35
2022-08-28T08:28:56.128Z,8.15
2022-08-28T08:31:26.638Z,8.40
2022-08-28T08:33:56.609Z,8.93
2022-08-28T08:36:25.087Z,10.13
2022-08-28T08:38:59.449Z,9.07
2022-08-28T08:41:34.395Z,8.35
2022-08-28T08:44:17.035Z,8.23
2022-08-28T08:46:56.158Z,8.82
2022-08-28T08:49:29.478Z,8.50
2022-08-28T08:51:58.855Z,8.05
2022-08-28T08:54:25.386Z,8.35
2022-08-28T08:56:55.920Z,8.07
2022-08-28T08:59:26.053Z,8.55
2022-08-28T09:02:12.188Z,8.73
2022-08-28T09:04:47.693Z,8.95
2022-08-28T09:07:21.432Z,7.80
2022-08-28T09:09:53.168Z,9.45
2022-08-28T09:12:26.044Z,8.75
2022-08-28T09:15:23.342Z,7.82
2022-08-28T09:17:55.267Z,9.23
2022-08-28T09:20:32.504Z,8.95
2022-08-28T09:23:00.075Z,9.73
2022-08-28T09:25:44.805Z,8.23
2022-08-28T09:28:15.784Z,8.57
2022-08-28T09:30:44.019Z,9.38
2022-08-28T09:33:10.447Z,9.27
2022-08-28T09:35:37.703Z,8.05
2022-08-28T09:38:19.190Z,9.20
2022-08-28T09:41:04.048Z,8.25
2022-08-28T09:43:31.497Z,8.35
2022-08-28T09:46:04.258Z,8.20
2022-08-28T09:48:37.970Z,7.90
2022-08-28T09:51:29.351Z,9.07
2022-08-28T09:54:36.123Z,10.23
2022-08-28T09:57:03.590Z,9.55
2022-08-28T09:59:30.838Z,8.45
2022-08-28T10:02:14.942Z,8.48
2022-08-28T10:05:01.035Z,8.88
2022-08-28T10:07:39.986Z,8.15
2022-08-28T10:10:20.849Z,7.93
2022-08-28T10:13:19.280Z,7.90
2022-08-28T10:16:01.696Z,8.65
2022-08-28T10:18:44.045Z,7.35
2022-08-28T10:21:18.012Z,9.15
2022-08-28T10:24:23.329Z,7.70
2022-08-28T10:27:15.357Z,8.90
2022-08-28T10:29:50.541Z,8.90
2022-08-28T10:32:54.715Z,8.60
2022-08-28T10:35:55.778Z,8.68
2022-08-28T10:41:10.023Z,8.38
2022-08-28T10:43:44.003Z,8.93
2022-08-28T10:46:15.009Z,9.18
2022-08-28T10:48:47.580Z,9.82
2022-08-28T10:51:34.757Z,8.73
2022-08-28T10:54:18.883Z,9.35
2022-08-28T10:56:57.322Z,9.10
2022-08-28T10:59:27.453Z,9.18
2022-08-28T11:01:53.942Z,9.07
2022-08-28T11:04:25.715Z,10.20
2022-08-28T11:07:00.662Z,9.32
2022-08-28T11:09:31.619Z,8.30
2022-08-28T11:12:02.170Z,8.70
2022-08-28T11:17:14.418Z,8.80
2022-08-28T11:19:58.862Z,8.98
2022-08-28T11:22:49.834Z,8.73
2022-08-28T11:28:23.856Z,7.70
2022-08-28T11:31:05.419Z,7.85
2022-08-28T11:33:52.515Z,7.38
2022-08-28T11:36:21.697Z,7.72
2022-08-28T11:39:00.986Z,8.60
2022-08-28T11:41:29.080Z,7.72
2022-08-28T11:44:13.902Z,7.88
2022-08-28T11:46:49.124Z,6.88
2022-08-28T11:49:26.111Z,7.65
2022-08-28T11:51:55.291Z,8.10
2022-08-28T11:54:46.756Z,8.05
2022-08-28T11:57:23.936Z,7.13
2022-08-28T12:00:21.624Z,7.55
2022-08-28T12:02:53.179Z,7.35
2022-08-28T12:05:40.051Z,7.65
2022-08-28T12:08:06.860Z,6.70
2022-08-28T12:10:33.235Z,7.70
2022-08-28T12:13:05.018Z,7.10
2022-08-28T12:15:31.448Z,6.88
2022-08-28T12:18:05.590Z,7.15
2022-08-28T12:20:58.606Z,5.93
2022-08-28T12:23:42.313Z,6.90
2022-08-28T12:26:21.096Z,6.47
2022-08-28T12:29:21.689Z,6.65
2022-08-28T12:32:20.853Z,6.60
2022-08-28T12:34:51.265Z,7.20
2022-08-28T12:37:51.006Z,6.30
2022-08-28T12:40:29.749Z,7.10
2022-08-28T12:43:00.449Z,6.43
2022-08-28T12:45:38.389Z,6.43
2022-08-28T12:48:16.508Z,6.85
2022-08-28T12:50:43.382Z,6.45
2022-08-28T12:53:16.975Z,6.38
2022-08-28T12:55:45.950Z,5.65
2022-08-28T12:58:27.850Z,5.82
2022-08-28T13:00:59.501Z,6.10
2022-08-28T13:03:26.245Z,6.13
2022-08-28T13:06:03.062Z,6.30
2022-08-28T13:08:29.697Z,5.88
2022-08-28T13:10:56.322Z,4.63
2022-08-28T13:13:32.540Z,4.68
2022-08-28T13:16:06.583Z,5.20
2022-08-28T13:19:09.555Z,5.25
2022-08-28T13:21:48.039Z,4.70
2022-08-28T13:24:27.577Z,4.75
2022-08-28T13:27:07.385Z,5.00
2022-08-28T13:29:35.346Z,5.60
2022-08-28T13:32:15.973Z,5.85
2022-08-28T13:34:46.070Z,5.25
2022-08-28T13:37:40.178Z,5.20
2022-08-28T13:40:16.013Z,5.05
2022-08-28T13:42:57.427Z,4.75
2022-08-28T13:45:24.048Z,5.32
2022-08-28T13:47:50.473Z,5.18
2022-08-28T13:50:16.886Z,5.43
2022-08-28T13:52:43.331Z,4.43
2022-08-28T13:55:12.279Z,4.38
2022-08-28T13:57:39.618Z,4.40
2022-08-28T14:00:06.696Z,4.50
2022-08-28T14:02:52.705Z,4.97
2022-08-28T14:05:19.726Z,4.90
2022-08-28T14:07:46.331Z,5.05
2022-08-28T14:10:13.058Z,4.85
2022-08-28T14:12:41.450Z,4.03
2022-08-28T14:15:07.978Z,5.10
2022-08-28T14:17:34.511Z,5.20
2022-08-28T14:20:01.620Z,4.45
2022-08-28T14:22:28.601Z,4.80
2022-08-28T14:24:55.051Z,4.43
2022-08-28T14:27:21.477Z,4.90
2022-08-28T14:29:49.047Z,4.13
2022-08-28T14:32:16.021Z,5.00
2022-08-28T14:34:43.543Z,4.60
2022-08-28T14:37:09.992Z,4.65
2022-08-28T14:39:36.428Z,3.92
2022-08-28T14:42:05.630Z,4.75
2022-08-28T14:44:39.620Z,5.03
2022-08-28T14:47:06.059Z,4.57
2022-08-28T14:49:32.494Z,4.07
2022-08-28T14:51:58.947Z,4.85
2022-08-28T14:54:26.271Z,4.45
2022-08-28T14:56:54.511Z,3.97
2022-08-28T14:59:25.094Z,4.03
2022-08-28T15:01:53.027Z,4.78
2022-08-28T15:04:24.756Z,4.03
2022-08-28T15:06:56.771Z,4.05
2022-08-28T15:09:23.231Z,4.03
2022-08-28T15:11:49.668Z,3.85
2022-08-28T15:14:16.115Z,4.32
2022-08-28T15:16:46.745Z,4.32
2022-08-28T15:21:46.406Z,4.20
2022-08-28T15:24:28.693Z,5.00
2022-08-28T15:26:55.218Z,4.03
2022-08-28T15:29:21.629Z,4.22
2022-08-28T15:31:50.484Z,4.28
2022-08-28T15:34:22.958Z,4.63
2022-08-28T15:36:54.577Z,4.43
2022-08-28T15:39:40.355Z,4.07
2022-08-28T15:42:07.789Z,4.30
2022-08-28T15:44:34.496Z,3.70
2022-08-28T15:47:02.414Z,4.20
2022-08-28T15:49:32.219Z,4.00
2022-08-28T15:52:02.916Z,3.45
2022-08-28T15:54:31.809Z,3.45
2022-08-28T15:56:58.911Z,3.80
2022-08-28T15:59:25.643Z,3.60
2022-08-28T16:02:12.665Z,4.53
2022-08-28T16:04:39.175Z,4.13
2022-08-28T16:07:05.615Z,3.60
2022-08-28T16:09:32.023Z,4.07
2022-08-28T16:11:58.643Z,2.95
2022-08-28T16:14:25.083Z,2.63
2022-08-28T16:16:51.558Z,3.13
2022-08-28T16:19:19.487Z,3.38
2022-08-28T16:21:46.243Z,2.90
2022-08-28T16:24:12.654Z,2.95
2022-08-28T16:26:39.501Z,3.33
2022-08-28T16:29:06.019Z,2.92
2022-08-28T16:31:34.320Z,2.90
2022-08-28T16:34:02.830Z,3.80
2022-08-28T16:36:30.077Z,3.00
2022-08-28T16:39:03.868Z,2.85
2022-08-28T16:41:31.987Z,2.92
2022-08-28T16:43:58.867Z,3.33
2022-08-28T16:46:26.804Z,3.13
2022-08-28T16:48:54.475Z,3.22
2022-08-28T16:51:21.490Z,2.60
2022-08-28T16:53:48.313Z,2.78
2022-08-28T16:56:17.115Z,2.58
2022-08-28T16:58:44.063Z,3.22
2022-08-28T17:01:11.971Z,3.10
2022-08-28T17:03:39.826Z,3.33
2022-08-28T17:06:26.697Z,3.35
2022-08-28T17:08:56.941Z,3.38
2022-08-28T17:13:51.311Z,3.05
2022-08-28T17:16:18.793Z,3.47
2022-08-28T17:18:48.219Z,3.38
2022-08-28T17:21:37.448Z,2.90
2022-08-28T17:24:04.229Z,2.83
2022-08-28T17:26:30.665Z,3.05
2022-08-28T17:28:57.094Z,3.80
2022-08-28T17:31:23.757Z,3.70
2022-08-28T17:33:50.482Z,3.22
2022-08-28T17:36:32.531Z,3.40
2022-08-28T17:39:01.543Z,3.42
2022-08-28T17:41:27.983Z,3.20
2022-08-28T17:43:54.444Z,2.72
2022-08-28T17:46:21.014Z,3.58
2022-08-28T17:48:54.270Z,3.45
2022-08-28T17:51:42.976Z,3.75
2022-08-28T17:54:15.358Z,3.10
2022-08-28T17:56:42.310Z,2.80
2022-08-28T17:59:10.031Z,3.95
2022-08-28T18:01:36.519Z,3.78
2022-08-28T18:04:03.271Z,3.53
2022-08-28T18:06:29.716Z,3.65
2022-08-28T18:08:56.355Z,3.90
2022-08-28T18:11:23.577Z,3.28
2022-08-28T18:13:50.400Z,3.70
2022-08-28T18:16:17.786Z,3.38
2022-08-28T18:18:44.250Z,3.38
2022-08-28T18:21:11.604Z,3.38
2022-08-28T18:23:39.634Z,3.00
2022-08-28T18:26:06.937Z,4.00
2022-08-28T18:28:33.465Z,3.40
2022-08-28T18:31:00.856Z,3.63
2022-08-28T18:33:27.478Z,3.53
2022-08-28T18:35:54.132Z,3.90
2022-08-28T18:38:23.149Z,3.47
2022-08-28T18:40:49.820Z,4.22
2022-08-28T18:43:20.090Z,3.53
2022-08-28T18:45:46.988Z,4.18
2022-08-28T18:48:13.994Z,3.83
2022-08-28T18:50:45.705Z,3.95
2022-08-28T18:53:13.716Z,4.10
2022-08-28T18:55:40.152Z,3.70
2022-08-28T18:58:06.948Z,4.18
2022-08-28T19:00:33.737Z,3.67
2022-08-28T19:03:00.387Z,3.38
2022-08-28T19:05:27.198Z,3.80
2022-08-28T19:07:53.839Z,3.05
2022-08-28T19:10:32.609Z,3.97
2022-08-28T19:13:01.040Z,3.05
2022-08-28T19:15:28.259Z,3.70
2022-08-28T19:17:55.166Z,3.22
2022-08-28T19:20:22.099Z,3.47
2022-08-28T19:22:48.800Z,3.78
2022-08-28T19:25:27.587Z,3.83
2022-08-28T19:27:56.333Z,3.28
2022-08-28T19:30:27.110Z,3.10
2022-08-28T19:32:53.557Z,3.47
2022-08-28T19:35:20.618Z,4.00
2022-08-28T19:40:19.181Z,3.83
2022-08-28T19:42:45.913Z,3.70
2022-08-28T19:45:14.853Z,3.30
2022-08-28T19:47:41.531Z,3.35
2022-08-28T19:50:10.917Z,3.63
2022-08-28T19:52:37.994Z,3.97
2022-08-28T19:55:06.026Z,3.67
2022-08-28T19:57:33.630Z,3.25
2022-08-28T20:00:00.084Z,3.78
2022-08-28T20:02:28.430Z,4.07
2022-08-28T20:04:55.333Z,3.47
2022-08-28T20:07:22.013Z,4.18
2022-08-28T20:09:48.434Z,4.63
2022-08-28T20:12:15.134Z,4.63
2022-08-28T20:14:42.693Z,4.63
2022-08-28T20:17:09.762Z,4.32
2022-08-28T20:19:36.499Z,4.50
2022-08-28T20:22:03.959Z,4.38
2022-08-28T20:24:30.874Z,4.53
2022-08-28T20:26:57.664Z,3.80
2022-08-28T20:29:25.152Z,4.55
2022-08-28T20:31:54.604Z,3.75
2022-08-28T20:34:22.013Z,3.90
2022-08-28T20:36:49.142Z,5.85
2022-08-28T20:39:16.371Z,4.90
2022-08-28T20:41:44.486Z,4.82
2022-08-28T20:44:12.980Z,4.32
2022-08-28T20:46:42.502Z,4.53
2022-08-28T20:49:13.988Z,4.13
2022-08-28T20:51:56.250Z,4.78
2022-08-28T20:54:32.628Z,3.17
2022-08-28T20:57:02.457Z,3.70
2022-08-28T20:59:39.319Z,4.53
2022-08-28T21:02:09.366Z,4.40
2022-08-28T21:04:37.453Z,3.90
2022-08-28T21:07:05.887Z,3.85
2022-08-28T21:09:40.968Z,4.10
2022-08-28T21:12:19.186Z,4.63
2022-08-28T21:14:51.454Z,4.40
2022-08-28T21:17:28.784Z,4.05
2022-08-28T21:19:57.986Z,3.65
2022-08-28T21:22:24.470Z,3.85
2022-08-28T21:24:50.884Z,3.47
2022-08-28T21:27:18.561Z,3.22
2022-08-28T21:29:45.849Z,3.75
2022-08-28T21:32:12.960Z,3.72
2022-08-28T21:34:39.477Z,4.03
2022-08-28T21:37:06.355Z,3.67
2022-08-28T21:39:32.818Z,4.03
2022-08-28T21:41:59.242Z,4.88
2022-08-28T21:44:25.677Z,3.70
2022-08-28T21:46:52.182Z,4.03
2022-08-28T21:49:18.657Z,3.92
2022-08-28T21:51:45.079Z,3.75
2022-08-28T21:54:11.504Z,3.55
2022-08-28T21:56:37.967Z,3.20
2022-08-28T21:59:04.439Z,3.78
2022-08-28T22:01:31.023Z,3.88
2022-08-28T22:03:57.513Z,3.60
2022-08-28T22:06:26.265Z,4.25
2022-08-28T22:08:53.650Z,4.55
2022-08-28T22:11:25.055Z,3.95
2022-08-28T22:13:52.258Z,4.10
2022-08-28T22:16:19.590Z,4.43
2022-08-28T22:18:46.471Z,5.10
2022-08-28T22:21:34.254Z,5.07
2022-08-28T22:24:01.206Z,4.28
2022-08-28T22:26:27.809Z,4.13
2022-08-28T22:28:54.730Z,4.70
2022-08-28T22:31:21.293Z,4.63
2022-08-28T22:33:47.786Z,4.20
2022-08-28T22:36:14.346Z,3.90
2022-08-28T22:38:41.284Z,4.20
2022-08-28T22:41:16.193Z,4.40
2022-08-28T22:43:42.625Z,4.65
2022-08-28T22:46:09.738Z,3.60
2022-08-28T22:48:36.266Z,4.00
2022-08-28T22:51:08.210Z,3.95
2022-08-28T22:53:35.877Z,4.10
2022-08-28T22:56:02.510Z,3.55
2022-08-28T22:58:31.534Z,4.10
2022-08-28T23:01:00.854Z,4.38
2022-08-28T23:03:27.622Z,5.40
2022-08-28T23:05:54.173Z,4.57
2022-08-28T23:08:20.908Z,4.43
2022-08-28T23:10:59.070Z,5.03
2022-08-28T23:13:25.910Z,4.85
2022-08-28T23:15:52.367Z,4.45
2022-08-28T23:18:18.795Z,4.80
2022-08-28T23:20:45.239Z,4.78
2022-08-28T23:23:11.990Z,4.45
2022-08-28T23:25:38.537Z,4.47
2022-08-28T23:28:06.619Z,4.25
2022-08-28T23:30:33.722Z,3.88
2022-08-28T23:33:00.170Z,4.97
2022-08-28T23:35:26.612Z,4.80
2022-08-28T23:37:53.277Z,5.22
2022-08-28T23:40:21.941Z,4.35
2022-08-28T23:42:48.821Z,4.50
2022-08-28T23:45:16.778Z,4.57
2022-08-28T23:47:43.818Z,4.65
2022-08-28T23:50:17.704Z,4.32
2022-08-28T23:52:44.373Z,4.97
2022-08-28T23:55:11.978Z,4.05
2022-08-28T23:57:38.642Z,4.35
